Hlavní strana
METAR-TAF:

METAR-TAF

Letiště :

Montichiari

Brescia, Itálie

zeměpisná šířka: 45-24-02N, zeměpisná délka: 010-18-59E, výška: 104 m

Aktuální stav počasí

Zpráva byla vytvořena před 1 hodinou a 19 minutami, v 19:50 UTC
Bezvětří
Teplota 25°C
Vlhkost vzduchu 65%
Tlak 1019 hPa
Viditelnost 10 km a více
Žádná oblačnost pod 1500 m, nevyskytují se cumulonimby.

METAR: LIPO 261950Z 00000KT CAVOK 25/18 Q1019

Čas: 23:09 (21:09 UTC)

Předpověď počasí

Zpráva byla vytvořena před 4 hodinami a 9 minutami, v 17:00 UTC
Předpověď platná od 26 v 18 UTC do 27 v 18 UTC
vítr z různých směrů 5 kt
Viditelnost 10 km a více
Polojasno ve výšce 3000 ft
Polojasno ve výšce 6000 ft
Dočasný
od 27 v 03 UTC do 27 v 08 UTC
bouřka, déšť
Dočasný
od 27 v 15 UTC do 27 v 18 UTC
bouřka, déšť

TAF: LIPO 261700Z 2618/2718 VRB05KT 9999 SCT030 SCT060 TEMPO 2703/2708 TSRA TEMPO 2715/2718 TSRA

Stav a předpovědi počasí z více než 4 000 letišť (zprávy METAR a TAF).

Červené a žluté tečky na mapě představují dostupné meteorologické stanice.

Když kurzor umístíte na tečku, zobrazí se název stanice.

Pak kliknutím zobrazíte stav a předpověď počasí.

Chcete-li změnit mapu, kliknutím na zelené tlačítko se znaménkem +mapu přiblížíte, kliknutím na zelené tlačítko se znaménkem – mapu oddálíte a kliknutím na zelené šipky přejdete na sousední mapy.


METAR-TAF: